createdAt,value
2019-03-11T00:01:58.930Z,64.49
2019-03-11T00:04:30.450Z,64.47
2019-03-11T00:07:01.781Z,64.37
2019-03-11T00:09:33.072Z,64.57
2019-03-11T00:12:04.522Z,64.90
2019-03-11T00:14:35.872Z,63.97
2019-03-11T00:17:07.302Z,63.16
2019-03-11T00:19:38.578Z,63.20
2019-03-11T00:22:09.673Z,63.44
2019-03-11T00:24:40.801Z,62.96
2019-03-11T00:27:12.238Z,63.25
2019-03-11T00:29:43.284Z,63.09
2019-03-11T00:32:14.626Z,63.35
2019-03-11T00:34:45.958Z,63.36
2019-03-11T00:37:17.993Z,63.37
2019-03-11T00:39:49.373Z,63.55
2019-03-11T00:42:20.617Z,63.00
2019-03-11T00:44:51.878Z,63.37
2019-03-11T00:47:23.110Z,63.64
2019-03-11T00:49:55.145Z,64.04
2019-03-11T00:52:27.463Z,64.23
2019-03-11T00:55:01.771Z,63.80
2019-03-11T00:57:33.009Z,64.19
2019-03-11T01:00:09.914Z,64.33
2019-03-11T01:02:41.168Z,64.05
2019-03-11T01:05:12.483Z,64.12
2019-03-11T01:07:43.733Z,63.97
2019-03-11T01:10:15.799Z,63.87
2019-03-11T01:12:47.048Z,63.68
2019-03-11T01:15:18.141Z,64.10
2019-03-11T01:17:50.338Z,63.58
2019-03-11T01:20:22.490Z,63.57
2019-03-11T01:22:53.723Z,63.37
2019-03-11T01:25:25.039Z,63.30
2019-03-11T01:27:58.070Z,63.27
2019-03-11T01:30:29.267Z,63.03
2019-03-11T01:33:00.440Z,63.01
2019-03-11T01:35:31.863Z,62.64
2019-03-11T01:38:04.297Z,62.18
2019-03-11T01:40:37.430Z,61.82
2019-03-11T01:43:08.818Z,61.36
2019-03-11T01:45:43.501Z,61.13
2019-03-11T01:48:14.857Z,61.13
2019-03-11T01:50:45.956Z,61.43
2019-03-11T01:53:17.139Z,61.79
2019-03-11T01:55:48.489Z,61.91
2019-03-11T01:58:19.474Z,61.97
2019-03-11T02:00:50.786Z,61.61
2019-03-11T02:03:22.024Z,61.73
2019-03-11T02:05:53.940Z,62.11
2019-03-11T02:08:25.243Z,62.39
2019-03-11T02:10:56.397Z,61.66
2019-03-11T02:13:27.443Z,61.40
2019-03-11T02:15:58.506Z,60.82
2019-03-11T02:18:29.589Z,61.16
2019-03-11T02:21:00.792Z,61.83
2019-03-11T02:23:32.952Z,61.93
2019-03-11T02:26:04.426Z,61.82
2019-03-11T02:28:35.828Z,61.82
2019-03-11T02:31:07.020Z,61.20
2019-03-11T02:33:38.372Z,61.23
2019-03-11T02:36:09.952Z,61.41
2019-03-11T02:38:41.336Z,61.21
2019-03-11T02:41:13.596Z,61.44
2019-03-11T02:43:46.893Z,61.41
2019-03-11T02:46:18.147Z,61.49
2019-03-11T02:48:50.445Z,61.60
2019-03-11T02:51:21.860Z,61.76
2019-03-11T02:53:53.218Z,61.46
2019-03-11T02:56:24.470Z,61.10
2019-03-11T02:58:55.711Z,60.66
2019-03-11T03:01:47.228Z,60.39
2019-03-11T03:04:23.194Z,60.21
2019-03-11T03:07:01.195Z,59.24
2019-03-11T03:09:32.442Z,59.17
2019-03-11T03:12:03.816Z,58.62
2019-03-11T03:14:35.090Z,58.96
2019-03-11T03:17:06.588Z,57.96
2019-03-11T03:19:37.747Z,57.30
2019-03-11T03:22:09.004Z,56.73
2019-03-11T03:24:40.142Z,56.32
2019-03-11T03:27:11.301Z,56.18
2019-03-11T03:29:42.513Z,56.78
2019-03-11T03:32:13.826Z,56.63
2019-03-11T03:34:45.243Z,56.83
2019-03-11T03:37:16.379Z,57.09
2019-03-11T03:39:47.779Z,57.63
2019-03-11T03:42:18.978Z,57.22
2019-03-11T03:45:10.279Z,57.29
2019-03-11T03:47:41.720Z,57.42
2019-03-11T03:50:12.974Z,57.05
2019-03-11T03:52:44.161Z,57.42
2019-03-11T03:55:15.375Z,57.31
2019-03-11T03:57:46.553Z,56.92
2019-03-11T04:00:17.658Z,56.38
2019-03-11T04:02:48.916Z,56.28
2019-03-11T04:05:20.128Z,56.19
2019-03-11T04:07:51.327Z,56.32
2019-03-11T04:10:22.439Z,56.19
2019-03-11T04:12:53.602Z,56.02
2019-03-11T04:15:24.732Z,56.44
2019-03-11T04:17:57.417Z,56.11
2019-03-11T04:20:28.653Z,55.33
2019-03-11T04:22:59.625Z,55.45
2019-03-11T04:25:30.755Z,55.32
2019-03-11T04:28:04.051Z,54.98
2019-03-11T04:30:35.598Z,54.96
2019-03-11T04:33:07.837Z,54.12
2019-03-11T04:35:39.177Z,54.05
2019-03-11T04:38:16.872Z,53.67
2019-03-11T04:40:50.222Z,52.72
2019-03-11T04:43:21.694Z,52.56
2019-03-11T04:45:54.952Z,52.55
2019-03-11T04:48:26.302Z,52.66
2019-03-11T04:50:57.951Z,52.70
2019-03-11T04:53:29.216Z,53.16
2019-03-11T04:56:02.631Z,53.82
2019-03-11T04:58:34.058Z,54.51
2019-03-11T05:01:05.350Z,54.98
2019-03-11T05:03:36.851Z,55.32
2019-03-11T05:06:07.908Z,55.47
2019-03-11T05:08:39.062Z,55.65
2019-03-11T05:11:11.430Z,55.72
2019-03-11T05:13:42.684Z,55.87
2019-03-11T05:16:15.958Z,55.90
2019-03-11T05:18:46.908Z,55.60
2019-03-11T05:21:19.216Z,55.32
2019-03-11T05:23:50.538Z,55.31
2019-03-11T05:26:21.760Z,55.45
2019-03-11T05:28:52.731Z,55.64
2019-03-11T05:31:24.363Z,55.52
2019-03-11T05:33:56.428Z,55.54
2019-03-11T05:36:28.692Z,55.60
2019-03-11T05:39:00.156Z,56.01
2019-03-11T05:41:34.168Z,56.46
2019-03-11T05:44:09.211Z,56.35
2019-03-11T05:46:41.679Z,56.46
2019-03-11T05:49:13.181Z,56.57
2019-03-11T05:51:45.506Z,56.54
2019-03-11T05:54:16.707Z,56.77
2019-03-11T05:56:47.809Z,56.52
2019-03-11T05:59:21.293Z,56.63
2019-03-11T06:01:54.183Z,56.64
2019-03-11T06:04:27.163Z,56.49
2019-03-11T06:06:58.610Z,56.35
2019-03-11T06:09:30.582Z,56.58
2019-03-11T06:12:01.928Z,56.45
2019-03-11T06:14:33.226Z,56.35
2019-03-11T06:17:05.769Z,56.50
2019-03-11T06:19:38.234Z,55.86
2019-03-11T06:22:11.222Z,56.21
2019-03-11T06:24:42.541Z,56.04
2019-03-11T06:27:13.910Z,55.98
2019-03-11T06:29:45.378Z,56.40
2019-03-11T06:32:17.330Z,56.43
2019-03-11T06:34:48.423Z,56.53
2019-03-11T06:37:20.117Z,56.11
2019-03-11T06:39:51.380Z,56.04
2019-03-11T06:42:24.580Z,55.37
2019-03-11T06:44:56.025Z,54.96
2019-03-11T06:47:30.981Z,54.43
2019-03-11T06:50:06.724Z,53.46
2019-03-11T06:52:38.928Z,53.20
2019-03-11T06:55:12.355Z,52.91
2019-03-11T06:57:44.041Z,53.12
2019-03-11T07:00:21.459Z,52.87
2019-03-11T07:02:59.304Z,52.51
2019-03-11T07:05:32.021Z,52.26
2019-03-11T07:08:03.155Z,52.39
2019-03-11T07:10:41.266Z,52.32
2019-03-11T07:13:12.947Z,51.58
2019-03-11T07:15:44.493Z,51.66
2019-03-11T07:18:16.370Z,51.42
2019-03-11T07:20:48.575Z,51.40
2019-03-11T07:23:19.647Z,51.69
2019-03-11T07:25:51.024Z,51.34
2019-03-11T07:28:23.193Z,51.99
2019-03-11T07:30:54.433Z,52.80
2019-03-11T07:33:25.660Z,52.42
2019-03-11T07:35:56.706Z,52.73
2019-03-11T07:38:28.262Z,53.15
2019-03-11T07:40:59.641Z,53.13
2019-03-11T07:43:32.681Z,53.08
2019-03-11T07:46:06.130Z,53.18
2019-03-11T07:48:42.084Z,53.21
2019-03-11T07:51:13.444Z,53.10
2019-03-11T07:53:45.884Z,53.06
2019-03-11T07:56:18.473Z,53.31
2019-03-11T07:58:51.757Z,53.20
2019-03-11T08:01:23.886Z,53.59
2019-03-11T08:03:56.818Z,53.29
2019-03-11T08:06:29.389Z,53.11
2019-03-11T08:09:05.909Z,53.25
2019-03-11T08:11:37.311Z,53.10
2019-03-11T08:14:10.504Z,53.46
2019-03-11T08:16:43.193Z,54.02
2019-03-11T08:19:15.795Z,54.55
2019-03-11T08:21:49.672Z,55.46
2019-03-11T08:24:33.103Z,55.62
2019-03-11T08:27:07.549Z,55.77
2019-03-11T08:29:40.858Z,55.99
2019-03-11T08:32:12.197Z,56.27
2019-03-11T08:34:43.416Z,56.36
2019-03-11T08:37:15.788Z,56.43
2019-03-11T08:39:47.998Z,56.49
2019-03-11T08:42:20.230Z,56.42
2019-03-11T08:44:53.403Z,56.19
2019-03-11T08:47:25.736Z,56.37
2019-03-11T08:49:58.067Z,56.16
2019-03-11T08:52:29.168Z,56.35
2019-03-11T08:55:06.532Z,56.88
2019-03-11T08:57:40.041Z,57.02
2019-03-11T09:00:22.644Z,56.54
2019-03-11T09:02:53.881Z,56.58
2019-03-11T09:05:25.662Z,56.18
2019-03-11T09:07:58.310Z,56.90
2019-03-11T09:10:30.040Z,57.12
2019-03-11T09:13:01.446Z,57.42
2019-03-11T09:15:33.816Z,56.96
2019-03-11T09:18:05.293Z,57.50
2019-03-11T09:20:36.582Z,57.69
2019-03-11T09:23:09.904Z,58.74
2019-03-11T09:25:41.223Z,59.30
2019-03-11T09:28:13.425Z,60.02
2019-03-11T09:30:48.952Z,60.61
2019-03-11T09:33:20.495Z,61.02
2019-03-11T09:35:51.818Z,61.24
2019-03-11T09:38:25.035Z,61.06
2019-03-11T09:40:56.218Z,60.78
2019-03-11T09:43:27.755Z,61.06
2019-03-11T09:46:01.255Z,60.76
2019-03-11T09:48:32.595Z,60.84
2019-03-11T09:51:04.357Z,60.39
2019-03-11T09:53:38.131Z,59.98
2019-03-11T09:56:11.350Z,60.29
2019-03-11T09:58:42.625Z,59.89
2019-03-11T10:01:18.358Z,59.53
2019-03-11T10:03:49.972Z,59.40
2019-03-11T10:06:23.517Z,59.94
2019-03-11T10:08:54.673Z,59.66
2019-03-11T10:11:26.246Z,60.16
2019-03-11T10:13:57.863Z,60.19
2019-03-11T10:16:29.181Z,59.59
2019-03-11T10:19:04.638Z,58.57
2019-03-11T10:21:36.103Z,58.35
2019-03-11T10:24:16.681Z,58.25
2019-03-11T10:26:52.148Z,58.53
2019-03-11T10:29:23.352Z,58.23
2019-03-11T10:31:58.516Z,57.94
2019-03-11T10:34:31.016Z,58.42
2019-03-11T10:37:03.940Z,59.04
2019-03-11T10:39:36.385Z,59.08
2019-03-11T10:42:07.794Z,59.41
2019-03-11T10:44:40.067Z,59.94
2019-03-11T10:47:13.311Z,59.73
2019-03-11T10:49:44.928Z,59.33
2019-03-11T10:52:18.326Z,58.88
2019-03-11T10:54:50.905Z,58.74
2019-03-11T10:57:22.434Z,58.86
2019-03-11T10:59:55.856Z,59.05
2019-03-11T11:02:27.361Z,58.50
2019-03-11T11:04:58.649Z,57.86
2019-03-11T11:07:31.236Z,57.72
2019-03-11T11:10:08.854Z,57.09
2019-03-11T11:12:41.670Z,56.24
2019-03-11T11:15:15.318Z,53.58
2019-03-11T11:17:46.593Z,52.30
2019-03-11T11:20:21.615Z,51.08
2019-03-11T11:23:03.686Z,52.17
2019-03-11T11:25:35.981Z,52.59
2019-03-11T11:28:13.565Z,53.58
2019-03-11T11:30:48.636Z,54.12
2019-03-11T11:33:22.033Z,55.86
2019-03-11T11:35:53.337Z,55.21
2019-03-11T11:38:26.368Z,54.52
2019-03-11T11:40:57.700Z,54.00
2019-03-11T11:43:29.157Z,54.23
2019-03-11T11:46:00.545Z,54.66
2019-03-11T11:48:33.035Z,54.37
2019-03-11T11:51:04.650Z,53.24
2019-03-11T11:53:37.004Z,50.30
2019-03-11T11:56:13.414Z,47.35
2019-03-11T11:58:50.315Z,49.87
2019-03-11T12:01:22.415Z,51.55
2019-03-11T12:03:54.714Z,53.35
2019-03-11T12:06:28.749Z,54.13
2019-03-11T12:09:00.949Z,54.96
2019-03-11T12:11:33.948Z,54.29
2019-03-11T12:14:08.362Z,54.51
2019-03-11T12:16:39.839Z,53.54
2019-03-11T12:19:11.722Z,52.24
2019-03-11T12:21:44.686Z,50.75
2019-03-11T12:24:19.526Z,51.42
2019-03-11T12:26:50.957Z,51.82
2019-03-11T12:29:22.598Z,51.99
2019-03-11T12:31:55.576Z,51.56
2019-03-11T12:34:28.154Z,51.50
2019-03-11T12:36:59.725Z,51.08
2019-03-11T12:39:31.691Z,46.86
2019-03-11T12:42:04.025Z,42.89
2019-03-11T12:44:35.287Z,43.50
2019-03-11T12:47:08.959Z,41.34
2019-03-11T12:49:46.427Z,40.21
2019-03-11T12:52:17.774Z,41.42
2019-03-11T12:54:49.284Z,43.71
2019-03-11T12:57:21.433Z,45.47
2019-03-11T12:59:54.169Z,46.67
2019-03-11T13:02:26.335Z,47.90
2019-03-11T13:04:59.946Z,48.24
2019-03-11T13:10:20.509Z,49.12
2019-03-11T13:12:52.370Z,49.32
2019-03-11T13:15:29.233Z,49.07
2019-03-11T13:18:29.573Z,48.83
2019-03-11T13:21:05.779Z,48.51
2019-03-11T13:23:41.669Z,48.21
2019-03-11T13:26:19.454Z,46.59
2019-03-11T13:28:51.450Z,44.79
2019-03-11T13:31:25.146Z,45.21
2019-03-11T13:34:00.543Z,45.43
2019-03-11T13:36:41.039Z,43.97
2019-03-11T13:39:13.095Z,43.60
2019-03-11T13:41:47.123Z,43.97
2019-03-11T13:44:19.942Z,43.89
2019-03-11T13:46:58.401Z,44.71
2019-03-11T13:49:36.187Z,45.73
2019-03-11T13:52:11.140Z,46.64
2019-03-11T13:54:47.666Z,46.75
2019-03-11T13:57:22.301Z,47.14
2019-03-11T13:59:57.520Z,47.29
2019-03-11T14:02:32.257Z,47.44
2019-03-11T14:05:06.521Z,48.17
2019-03-11T14:07:42.033Z,48.58
2019-03-11T14:10:15.440Z,49.15
2019-03-11T14:12:49.047Z,49.55
2019-03-11T14:15:23.266Z,50.13
2019-03-11T14:17:57.813Z,49.86
2019-03-11T14:20:37.166Z,50.11
2019-03-11T14:23:11.272Z,50.10
2019-03-11T14:25:44.766Z,49.93
2019-03-11T14:28:30.250Z,50.15
2019-03-11T14:31:10.997Z,50.45
2019-03-11T14:33:52.200Z,50.49
2019-03-11T14:36:24.743Z,50.76
2019-03-11T14:38:57.404Z,51.40
2019-03-11T14:41:28.908Z,52.43
2019-03-11T14:44:00.678Z,52.50
2019-03-11T14:46:32.762Z,52.96
2019-03-11T14:49:04.400Z,53.33
2019-03-11T14:51:37.510Z,53.50
2019-03-11T14:54:10.675Z,53.61
2019-03-11T14:56:42.291Z,52.58
2019-03-11T14:59:13.658Z,52.24
2019-03-11T15:01:45.121Z,52.48
2019-03-11T15:04:19.253Z,51.70
2019-03-11T15:06:52.838Z,51.67
2019-03-11T15:09:24.285Z,51.40
2019-03-11T15:11:55.375Z,51.53
2019-03-11T15:14:28.441Z,50.02
2019-03-11T15:17:01.019Z,49.14
2019-03-11T15:19:33.474Z,49.45
2019-03-11T15:22:05.991Z,48.02
2019-03-11T15:24:38.418Z,47.73
2019-03-11T15:27:09.832Z,47.37
2019-03-11T15:29:41.271Z,47.22
2019-03-11T15:32:13.730Z,47.43
2019-03-11T15:34:45.080Z,47.39
2019-03-11T15:37:22.647Z,47.72
2019-03-11T15:39:55.006Z,46.69
2019-03-11T15:42:26.523Z,46.70
2019-03-11T15:44:58.639Z,46.70
2019-03-11T15:47:29.898Z,47.07
2019-03-11T15:50:01.101Z,46.82
2019-03-11T15:52:35.727Z,46.88
2019-03-11T15:55:12.292Z,46.93
2019-03-11T15:57:44.219Z,47.01
2019-03-11T16:00:22.658Z,47.27
2019-03-11T16:02:53.880Z,47.54
2019-03-11T16:05:25.705Z,47.58
2019-03-11T16:07:57.082Z,47.72
2019-03-11T16:10:29.396Z,48.28
2019-03-11T16:13:00.516Z,47.90
2019-03-11T16:15:31.751Z,48.12
2019-03-11T16:18:02.854Z,48.71
2019-03-11T16:20:34.089Z,48.53
2019-03-11T16:23:07.172Z,48.43
2019-03-11T16:25:38.394Z,48.22
2019-03-11T16:28:10.665Z,48.50
2019-03-11T16:30:42.623Z,49.07
2019-03-11T16:33:14.896Z,48.83
2019-03-11T16:35:46.300Z,49.32
2019-03-11T16:38:18.329Z,48.96
2019-03-11T16:40:50.557Z,49.56
2019-03-11T16:43:23.378Z,49.49
2019-03-11T16:45:56.866Z,49.88
2019-03-11T16:48:28.129Z,49.84
2019-03-11T16:50:59.453Z,49.90
2019-03-11T16:53:31.301Z,49.49
2019-03-11T16:56:03.793Z,49.51
2019-03-11T16:58:34.910Z,49.21
2019-03-11T17:01:07.586Z,49.39
2019-03-11T17:03:38.579Z,49.40
2019-03-11T17:06:09.816Z,49.72
2019-03-11T17:08:41.384Z,49.78
2019-03-11T17:11:12.823Z,49.57
2019-03-11T17:13:43.889Z,49.69
2019-03-11T17:16:16.067Z,50.29
2019-03-11T17:18:49.398Z,49.72
2019-03-11T17:21:20.816Z,49.84
2019-03-11T17:23:51.875Z,49.48
2019-03-11T17:26:23.168Z,49.22
2019-03-11T17:28:54.514Z,49.37
2019-03-11T17:31:25.704Z,49.47
2019-03-11T17:33:56.780Z,49.62
2019-03-11T17:36:32.924Z,49.50
2019-03-11T17:39:10.174Z,49.34
2019-03-11T17:41:41.437Z,49.60
2019-03-11T17:44:12.826Z,49.48
2019-03-11T17:46:44.416Z,49.66
2019-03-11T17:49:15.648Z,49.45
2019-03-11T17:51:47.887Z,49.69
2019-03-11T17:54:18.914Z,49.98
2019-03-11T17:56:55.273Z,50.35
2019-03-11T17:59:28.781Z,50.21
2019-03-11T18:02:00.543Z,50.22
2019-03-11T18:04:31.665Z,50.31
2019-03-11T18:07:03.011Z,50.44
2019-03-11T18:09:35.851Z,50.29
2019-03-11T18:12:07.240Z,50.41
2019-03-11T18:14:40.006Z,50.21
2019-03-11T18:17:15.698Z,50.44
2019-03-11T18:19:47.997Z,50.64
2019-03-11T18:22:19.382Z,50.22
2019-03-11T18:24:53.094Z,50.38
2019-03-11T18:27:29.987Z,50.36
2019-03-11T18:30:01.652Z,50.10
2019-03-11T18:32:39.916Z,50.16
2019-03-11T18:35:11.504Z,50.32
2019-03-11T18:37:44.080Z,50.84
2019-03-11T18:40:16.686Z,50.88
2019-03-11T18:42:47.704Z,51.36
2019-03-11T18:45:18.709Z,51.23
2019-03-11T18:47:51.159Z,51.45
2019-03-11T18:50:25.485Z,51.01
2019-03-11T18:52:58.838Z,51.06
2019-03-11T18:55:29.903Z,51.01
2019-03-11T18:58:02.549Z,51.09
2019-03-11T19:00:33.672Z,50.84
2019-03-11T19:03:05.079Z,51.09
2019-03-11T19:05:37.429Z,51.40
2019-03-11T19:08:10.046Z,51.37
2019-03-11T19:10:41.218Z,51.16
2019-03-11T19:13:12.766Z,51.31
2019-03-11T19:15:44.255Z,51.31
2019-03-11T19:18:17.274Z,51.20
2019-03-11T19:20:48.959Z,51.40
2019-03-11T19:23:20.880Z,51.45
2019-03-11T19:25:52.277Z,51.42
2019-03-11T19:28:23.747Z,51.70
2019-03-11T19:30:56.752Z,51.76
2019-03-11T19:33:28.008Z,51.52
2019-03-11T19:35:59.304Z,51.61
2019-03-11T19:38:30.914Z,51.69
2019-03-11T19:41:03.460Z,51.81
2019-03-11T19:43:34.821Z,52.10
2019-03-11T19:46:05.879Z,52.28
2019-03-11T19:48:38.113Z,52.07
2019-03-11T19:51:09.896Z,51.94
2019-03-11T19:53:41.461Z,51.96
2019-03-11T19:56:14.379Z,52.13
2019-03-11T19:58:47.714Z,51.89
2019-03-11T20:01:19.248Z,51.65
2019-03-11T20:03:50.474Z,51.66
2019-03-11T20:06:21.774Z,51.75
2019-03-11T20:08:52.932Z,51.70
2019-03-11T20:11:25.179Z,51.39
2019-03-11T20:13:56.512Z,50.86
2019-03-11T20:16:27.715Z,50.69
2019-03-11T20:18:58.981Z,50.56
2019-03-11T20:21:30.165Z,50.76
2019-03-11T20:24:02.456Z,50.57
2019-03-11T20:26:33.952Z,50.67
2019-03-11T20:29:06.211Z,50.78
2019-03-11T20:31:38.542Z,50.61
2019-03-11T20:34:09.915Z,50.83
2019-03-11T20:36:41.019Z,50.55
2019-03-11T20:39:11.977Z,50.35
2019-03-11T20:41:44.267Z,50.70
2019-03-11T20:44:15.582Z,51.04
2019-03-11T20:46:46.986Z,50.51
2019-03-11T20:49:18.508Z,50.34
2019-03-11T20:51:50.759Z,50.40
2019-03-11T20:54:21.937Z,50.43
2019-03-11T20:56:53.405Z,50.49
2019-03-11T20:59:27.068Z,50.69
2019-03-11T21:01:58.369Z,50.33
2019-03-11T21:04:29.688Z,50.31
2019-03-11T21:07:01.305Z,50.56
2019-03-11T21:09:32.856Z,50.70
2019-03-11T21:12:04.203Z,50.99
2019-03-11T21:14:35.702Z,51.30
2019-03-11T21:17:07.702Z,51.29
2019-03-11T21:19:38.818Z,51.34
2019-03-11T21:22:09.995Z,51.49
2019-03-11T21:24:41.830Z,51.59
2019-03-11T21:27:14.123Z,51.63
2019-03-11T21:29:48.923Z,51.22
2019-03-11T21:32:20.476Z,51.44
2019-03-11T21:34:55.113Z,51.57
2019-03-11T21:37:26.736Z,51.24
2019-03-11T21:39:58.050Z,51.15
2019-03-11T21:42:33.815Z,50.80
2019-03-11T21:45:06.806Z,51.23
2019-03-11T21:47:41.443Z,51.31
2019-03-11T21:50:18.126Z,51.63
2019-03-11T21:52:50.766Z,51.11
2019-03-11T21:55:25.414Z,51.18
2019-03-11T21:58:12.677Z,51.39
2019-03-11T22:00:36.292Z,51.10
2019-03-11T22:03:07.704Z,51.10
2019-03-11T22:05:40.066Z,51.14
2019-03-11T22:08:11.305Z,51.53
2019-03-11T22:10:43.274Z,51.59
2019-03-11T22:13:15.543Z,51.94
2019-03-11T22:15:48.838Z,52.17
2019-03-11T22:18:22.250Z,52.27
2019-03-11T22:20:53.531Z,52.40
2019-03-11T22:23:25.144Z,52.77
2019-03-11T22:25:57.519Z,52.78
2019-03-11T22:28:30.119Z,53.11
2019-03-11T22:31:02.886Z,53.60
2019-03-11T22:33:35.045Z,53.77
2019-03-11T22:36:06.495Z,53.78
2019-03-11T22:38:39.391Z,53.96
2019-03-11T22:41:10.751Z,54.20
2019-03-11T22:43:41.944Z,53.61
2019-03-11T22:46:13.325Z,53.49
2019-03-11T22:48:44.614Z,53.62
2019-03-11T22:51:16.128Z,53.77
2019-03-11T22:53:51.585Z,53.83
2019-03-11T22:56:21.589Z,53.79
2019-03-11T22:58:52.834Z,53.78
2019-03-11T23:01:25.514Z,54.06
2019-03-11T23:03:56.869Z,54.00
2019-03-11T23:06:28.216Z,54.18
2019-03-11T23:08:59.259Z,54.36
2019-03-11T23:11:30.368Z,54.27
2019-03-11T23:14:01.662Z,54.52
2019-03-11T23:16:32.675Z,54.69
2019-03-11T23:19:03.947Z,54.71
2019-03-11T23:21:35.297Z,54.91
2019-03-11T23:24:07.460Z,55.20
2019-03-11T23:26:38.502Z,55.19
2019-03-11T23:29:09.792Z,55.23
2019-03-11T23:31:40.965Z,55.38
2019-03-11T23:34:12.057Z,55.44
2019-03-11T23:36:43.391Z,55.33
2019-03-11T23:39:14.566Z,55.35
2019-03-11T23:41:45.802Z,55.43
2019-03-11T23:44:16.820Z,55.24
2019-03-11T23:46:48.030Z,55.17
2019-03-11T23:49:19.033Z,55.29
2019-03-11T23:51:50.576Z,55.35
2019-03-11T23:54:21.713Z,55.60
2019-03-11T23:56:52.708Z,55.70
2019-03-11T23:59:23.997Z,55.60
